createdAt,value
2022-08-05T00:01:35.949Z,99.90
2022-08-05T00:04:14.973Z,99.90
2022-08-05T00:06:42.008Z,99.90
2022-08-05T00:09:12.924Z,99.90
2022-08-05T00:11:48.262Z,99.90
2022-08-05T00:14:17.294Z,99.90
2022-08-05T00:16:52.804Z,99.90
2022-08-05T00:19:25.003Z,99.90
2022-08-05T00:22:00.366Z,99.90
2022-08-05T00:24:30.761Z,99.90
2022-08-05T00:26:59.079Z,99.90
2022-08-05T00:29:27.601Z,99.90
2022-08-05T00:32:12.724Z,99.90
2022-08-05T00:35:03.473Z,99.90
2022-08-05T00:37:50.649Z,99.90
2022-08-05T00:40:27.220Z,99.90
2022-08-05T00:42:57.357Z,99.90
2022-08-05T00:45:28.093Z,99.90
2022-08-05T00:48:06.211Z,99.90
2022-08-05T00:50:33.726Z,99.90
2022-08-05T00:53:01.515Z,99.90
2022-08-05T00:55:34.251Z,99.90
2022-08-05T00:58:11.149Z,99.90
2022-08-05T01:00:38.787Z,99.90
2022-08-05T01:03:07.576Z,99.90
2022-08-05T01:05:35.338Z,99.90
2022-08-05T01:08:42.574Z,99.90
2022-08-05T01:11:22.709Z,99.90
2022-08-05T01:14:03.291Z,99.90
2022-08-05T01:16:38.287Z,99.90
2022-08-05T01:19:46.215Z,99.90
2022-08-05T01:22:34.036Z,99.90
2022-08-05T01:25:40.776Z,99.90
2022-08-05T01:28:18.101Z,99.90
2022-08-05T01:31:02.982Z,99.90
2022-08-05T01:33:39.901Z,99.90
2022-08-05T01:36:16.056Z,99.90
2022-08-05T01:38:48.431Z,99.90
2022-08-05T01:41:20.992Z,99.90
2022-08-05T01:43:53.816Z,99.90
2022-08-05T01:46:41.896Z,99.90
2022-08-05T01:49:23.365Z,99.90
2022-08-05T01:51:56.137Z,99.90
2022-08-05T01:54:30.599Z,99.90
2022-08-05T01:58:10.982Z,99.90
2022-08-05T01:59:49.480Z,99.90
2022-08-05T02:02:17.728Z,99.90
2022-08-05T02:04:49.628Z,99.90
2022-08-05T02:07:21.856Z,99.90
2022-08-05T02:09:50.433Z,99.90
2022-08-05T02:12:36.487Z,99.90
2022-08-05T02:15:26.369Z,99.90
2022-08-05T02:18:32.728Z,99.90
2022-08-05T02:20:59.433Z,99.90
2022-08-05T02:23:33.522Z,99.90
2022-08-05T02:26:03.172Z,99.90
2022-08-05T02:28:38.095Z,99.90
2022-08-05T02:31:14.825Z,99.90
2022-08-05T02:33:48.575Z,99.90
2022-08-05T02:36:20.822Z,99.90
2022-08-05T02:38:57.678Z,99.90
2022-08-05T02:41:28.725Z,99.90
2022-08-05T02:44:13.197Z,99.90
2022-08-05T02:46:53.493Z,99.90
2022-08-05T02:49:36.784Z,99.90
2022-08-05T02:52:07.514Z,99.90
2022-08-05T02:54:37.054Z,99.90
2022-08-05T02:57:10.305Z,99.90
2022-08-05T02:59:55.577Z,99.90
2022-08-05T03:02:31.965Z,99.90
2022-08-05T03:04:59.751Z,99.90
2022-08-05T03:08:00.775Z,99.90
2022-08-05T03:10:21.734Z,99.90
2022-08-05T03:12:52.520Z,99.90
2022-08-05T03:15:20.757Z,99.90
2022-08-05T03:17:47.750Z,99.90
2022-08-05T03:20:20.611Z,99.90
2022-08-05T03:22:50.105Z,99.90
2022-08-05T03:25:33.392Z,99.90
2022-08-05T03:28:09.021Z,99.90
2022-08-05T03:30:36.783Z,99.90
2022-08-05T03:33:07.511Z,99.90
2022-08-05T03:35:41.173Z,99.90
2022-08-05T03:38:11.010Z,99.90
2022-08-05T03:40:41.357Z,99.90
2022-08-05T03:43:58.722Z,99.90
2022-08-05T03:45:59.865Z,99.90
2022-08-05T03:48:28.255Z,99.90
2022-08-05T03:52:37.866Z,99.90
2022-08-05T03:56:01.872Z,99.90
2022-08-05T03:57:16.374Z,99.90
2022-08-05T03:59:55.047Z,99.90
2022-08-05T04:02:38.390Z,99.90
2022-08-05T04:05:13.662Z,99.90
2022-08-05T04:07:51.463Z,99.90
2022-08-05T04:10:28.649Z,99.90
2022-08-05T04:12:59.216Z,99.90
2022-08-05T04:15:27.779Z,99.90
2022-08-05T04:18:03.741Z,99.90
2022-08-05T04:20:35.164Z,99.90
2022-08-05T04:23:02.416Z,99.90
2022-08-05T04:25:56.409Z,99.90
2022-08-05T04:28:18.514Z,99.90
2022-08-05T04:30:45.930Z,99.90
2022-08-05T04:33:13.445Z,99.90
2022-08-05T04:36:10.989Z,99.90
2022-08-05T04:38:39.796Z,99.90
2022-08-05T04:41:10.019Z,99.90
2022-08-05T04:43:37.747Z,99.90
2022-08-05T04:46:08.404Z,99.90
2022-08-05T04:48:35.692Z,99.90
2022-08-05T04:51:10.986Z,99.90
2022-08-05T04:53:39.028Z,99.90
2022-08-05T04:56:33.173Z,99.90
2022-08-05T04:58:56.832Z,99.90
2022-08-05T05:02:05.491Z,99.90
2022-08-05T05:04:10.988Z,99.90
2022-08-05T05:06:49.229Z,99.90
2022-08-05T05:09:18.772Z,99.90
2022-08-05T05:11:55.473Z,99.90
2022-08-05T05:14:28.106Z,99.90
2022-08-05T05:17:00.177Z,99.90
2022-08-05T05:19:36.314Z,99.90
2022-08-05T05:22:24.533Z,99.90
2022-08-05T05:24:57.352Z,99.90
2022-08-05T05:27:44.195Z,99.90
2022-08-05T05:30:29.770Z,99.90
2022-08-05T05:33:00.559Z,99.90
2022-08-05T05:35:37.657Z,99.90
2022-08-05T05:38:09.494Z,99.90
2022-08-05T05:40:47.982Z,99.90
2022-08-05T05:43:27.931Z,99.90
2022-08-05T05:46:05.114Z,99.70
2022-08-05T05:48:32.857Z,99.90
2022-08-05T05:51:15.298Z,99.70
2022-08-05T05:53:54.378Z,99.90
2022-08-05T05:56:31.593Z,99.90
2022-08-05T05:59:03.493Z,99.50
2022-08-05T06:01:37.113Z,99.10
2022-08-05T06:04:14.347Z,98.80
2022-08-05T06:06:46.413Z,98.40
2022-08-05T06:09:24.726Z,98.40
2022-08-05T06:12:01.097Z,98.10
2022-08-05T06:14:31.254Z,98.00
2022-08-05T06:16:59.013Z,98.00
2022-08-05T06:19:34.608Z,97.20
2022-08-05T06:22:06.802Z,96.50
2022-08-05T06:24:35.792Z,96.40
2022-08-05T06:27:04.096Z,96.40
2022-08-05T06:29:49.239Z,95.20
2022-08-05T06:32:24.994Z,95.10
2022-08-05T06:34:56.340Z,94.40
2022-08-05T06:37:56.788Z,94.20
2022-08-05T06:40:18.332Z,94.40
2022-08-05T06:42:51.998Z,94.10
2022-08-05T06:45:44.779Z,94.60
2022-08-05T06:48:36.207Z,94.10
2022-08-05T06:50:57.018Z,94.60
2022-08-05T06:53:27.890Z,94.70
2022-08-05T06:55:59.387Z,94.50
2022-08-05T06:58:35.205Z,94.90
2022-08-05T07:01:06.492Z,95.30
2022-08-05T07:03:33.695Z,95.20
2022-08-05T07:06:06.178Z,94.90
2022-08-05T07:08:42.791Z,94.30
2022-08-05T07:11:15.435Z,94.50
2022-08-05T07:14:03.188Z,94.70
2022-08-05T07:18:00.227Z,94.30
2022-08-05T07:22:27.766Z,94.40
2022-08-05T07:24:57.254Z,94.80
2022-08-05T07:27:27.439Z,94.40
2022-08-05T07:30:27.779Z,94.40
2022-08-05T07:32:53.529Z,94.20
2022-08-05T07:36:02.114Z,94.20
2022-08-05T07:38:07.602Z,94.10
2022-08-05T07:43:25.157Z,93.40
2022-08-05T07:45:58.267Z,93.80
2022-08-05T07:49:01.711Z,93.40
2022-08-05T07:51:23.440Z,93.60
2022-08-05T07:54:03.634Z,92.90
2022-08-05T07:57:00.759Z,92.70
2022-08-05T07:59:17.294Z,92.80
2022-08-05T08:01:52.440Z,92.30
2022-08-05T08:04:37.736Z,92.20
2022-08-05T08:07:07.304Z,92.30
2022-08-05T08:09:35.152Z,92.00
2022-08-05T08:12:12.499Z,91.50
2022-08-05T08:14:47.496Z,91.60
2022-08-05T08:17:15.760Z,91.00
2022-08-05T08:20:10.173Z,91.20
2022-08-05T08:22:32.575Z,90.80
2022-08-05T08:25:02.825Z,90.10
2022-08-05T08:27:40.314Z,89.00
2022-08-05T08:30:28.589Z,88.10
2022-08-05T08:33:04.736Z,86.50
2022-08-05T08:35:41.319Z,85.70
2022-08-05T08:38:32.137Z,84.40
2022-08-05T08:41:06.552Z,82.90
2022-08-05T08:45:23.924Z,83.10
2022-08-05T08:46:27.676Z,81.40
2022-08-05T08:49:06.330Z,80.70
2022-08-05T08:52:03.773Z,78.50
2022-08-05T08:54:33.776Z,77.60
2022-08-05T08:57:05.302Z,78.50
2022-08-05T08:59:38.552Z,77.30
2022-08-05T09:02:09.109Z,76.40
2022-08-05T09:04:58.543Z,75.00
2022-08-05T09:07:28.506Z,73.70
2022-08-05T09:09:56.127Z,72.50
2022-08-05T09:12:27.389Z,73.40
2022-08-05T09:15:01.187Z,70.20
2022-08-05T09:17:40.411Z,70.50
2022-08-05T09:20:09.267Z,70.30
2022-08-05T09:23:19.506Z,70.70
2022-08-05T09:26:02.375Z,68.70
2022-08-05T09:28:33.575Z,71.60
2022-08-05T09:31:44.208Z,69.30
2022-08-05T09:34:04.604Z,69.80
2022-08-05T09:36:56.085Z,68.50
2022-08-05T09:39:41.503Z,69.00
2022-08-05T09:42:23.162Z,69.80
2022-08-05T09:44:56.006Z,69.10
2022-08-05T09:47:26.401Z,69.00
2022-08-05T09:50:02.372Z,67.40
2022-08-05T09:52:32.309Z,69.60
2022-08-05T09:55:58.716Z,67.50
2022-08-05T09:57:59.829Z,66.70
2022-08-05T10:00:27.585Z,67.40
2022-08-05T10:02:57.977Z,67.00
2022-08-05T10:05:28.033Z,66.40
2022-08-05T10:08:34.770Z,67.30
2022-08-05T10:10:54.634Z,66.60
2022-08-05T10:13:45.767Z,67.30
2022-08-05T10:16:32.135Z,67.00
2022-08-05T10:19:01.826Z,64.10
2022-08-05T10:21:40.118Z,64.60
2022-08-05T10:24:13.962Z,66.40
2022-08-05T10:26:51.810Z,64.50
2022-08-05T10:30:05.879Z,62.70
2022-08-05T10:32:54.068Z,62.40
2022-08-05T10:35:00.892Z,63.90
2022-08-05T10:37:37.488Z,63.70
2022-08-05T10:40:50.148Z,65.00
2022-08-05T10:43:44.240Z,62.50
2022-08-05T10:46:13.786Z,62.10
2022-08-05T10:48:56.501Z,60.60
2022-08-05T10:51:29.177Z,59.30
2022-08-05T10:54:05.868Z,59.70
2022-08-05T10:56:56.197Z,60.90
2022-08-05T11:00:04.150Z,60.50
2022-08-05T11:02:37.597Z,58.50
2022-08-05T11:05:10.242Z,58.70
2022-08-05T11:08:01.776Z,58.30
2022-08-05T11:10:33.778Z,57.80
2022-08-05T11:13:01.096Z,57.00
2022-08-05T11:16:01.332Z,59.10
2022-08-05T11:18:34.105Z,57.20
2022-08-05T11:21:06.202Z,54.20
2022-08-05T11:24:04.719Z,55.10
2022-08-05T11:26:43.423Z,54.10
2022-08-05T11:29:40.866Z,53.30
2022-08-05T11:32:30.129Z,54.80
2022-08-05T11:34:57.684Z,53.40
2022-08-05T11:38:29.002Z,53.90
2022-08-05T11:41:12.970Z,56.00
2022-08-05T11:44:07.567Z,55.30
2022-08-05T11:46:58.594Z,58.20
2022-08-05T11:49:25.101Z,55.50
2022-08-05T11:51:57.502Z,56.00
2022-08-05T11:54:32.626Z,55.00
2022-08-05T11:57:08.867Z,54.80
2022-08-05T11:59:49.862Z,54.10
2022-08-05T12:02:29.696Z,53.50
2022-08-05T12:04:59.554Z,55.60
2022-08-05T12:08:10.541Z,52.70
2022-08-05T12:10:19.488Z,53.20
2022-08-05T12:12:59.622Z,53.60
2022-08-05T12:15:38.449Z,55.00
2022-08-05T12:18:11.062Z,56.50
2022-08-05T12:20:39.361Z,55.50
2022-08-05T12:23:11.686Z,55.10
2022-08-05T12:25:56.639Z,54.90
2022-08-05T12:28:34.208Z,56.40
2022-08-05T12:31:02.395Z,54.70
2022-08-05T12:33:36.554Z,54.80
2022-08-05T12:36:08.876Z,56.30
2022-08-05T12:38:41.532Z,54.60
2022-08-05T12:41:17.472Z,54.80
2022-08-05T12:43:53.504Z,53.20
2022-08-05T12:46:31.622Z,54.10
2022-08-05T12:49:11.991Z,53.80
2022-08-05T12:52:12.955Z,54.30
2022-08-05T12:54:36.755Z,54.10
2022-08-05T12:57:09.750Z,54.10
2022-08-05T13:00:09.005Z,53.40
2022-08-05T13:02:36.158Z,54.10
2022-08-05T13:05:07.868Z,54.60
2022-08-05T13:10:22.858Z,55.10
2022-08-05T13:12:51.200Z,53.80
2022-08-05T13:15:41.529Z,53.00
2022-08-05T13:18:19.741Z,52.40
2022-08-05T13:20:49.800Z,53.40
2022-08-05T13:23:22.044Z,52.80
2022-08-05T13:25:52.556Z,53.70
2022-08-05T13:28:25.837Z,51.80
2022-08-05T13:30:53.266Z,51.40
2022-08-05T13:34:24.774Z,52.10
2022-08-05T13:36:09.127Z,52.10
2022-08-05T13:38:42.308Z,53.20
2022-08-05T13:41:12.620Z,50.70
2022-08-05T13:43:45.723Z,51.40
2022-08-05T13:46:37.633Z,51.80
2022-08-05T13:49:11.770Z,51.80
2022-08-05T13:51:41.564Z,53.10
2022-08-05T13:54:15.227Z,53.90
2022-08-05T13:56:45.597Z,53.10
2022-08-05T13:59:21.377Z,52.20
2022-08-05T14:01:57.994Z,54.00
2022-08-05T14:04:49.500Z,53.10
2022-08-05T14:07:25.634Z,52.00
2022-08-05T14:10:19.127Z,52.60
2022-08-05T14:12:55.227Z,51.70
2022-08-05T14:16:05.184Z,51.20
2022-08-05T14:18:14.680Z,51.40
2022-08-05T14:20:46.805Z,52.20
2022-08-05T14:23:15.356Z,52.40
2022-08-05T14:25:53.824Z,51.30
2022-08-05T14:28:25.994Z,51.60
2022-08-05T14:30:53.547Z,52.00
2022-08-05T14:33:23.041Z,52.40
2022-08-05T14:35:52.197Z,50.60
2022-08-05T14:38:33.333Z,53.20
2022-08-05T14:41:07.484Z,53.80
2022-08-05T14:43:58.986Z,53.60
2022-08-05T14:46:29.602Z,52.30
2022-08-05T14:48:59.724Z,53.10
2022-08-05T14:51:33.914Z,51.40
2022-08-05T14:54:26.903Z,52.90
2022-08-05T14:56:48.192Z,52.70
2022-08-05T14:59:16.007Z,54.00
2022-08-05T15:01:49.034Z,53.80
2022-08-05T15:04:17.463Z,51.60
2022-08-05T15:06:48.955Z,51.50
2022-08-05T15:09:51.411Z,50.60
2022-08-05T15:12:09.531Z,52.20
2022-08-05T15:14:48.365Z,50.60
2022-08-05T15:17:47.025Z,50.20
2022-08-05T15:20:17.174Z,52.80
2022-08-05T15:22:46.755Z,51.50
2022-08-05T15:25:23.505Z,49.70
2022-08-05T15:28:14.430Z,48.70
2022-08-05T15:30:42.097Z,50.70
2022-08-05T15:33:10.439Z,53.20
2022-08-05T15:35:45.115Z,54.10
2022-08-05T15:38:35.570Z,54.70
2022-08-05T15:41:23.881Z,52.30
2022-08-05T15:43:47.010Z,53.00
2022-08-05T15:46:14.449Z,51.90
2022-08-05T15:48:53.123Z,52.30
2022-08-05T15:52:12.858Z,53.70
2022-08-05T15:54:15.787Z,53.40
2022-08-05T15:56:43.617Z,52.70
2022-08-05T15:59:22.077Z,54.80
2022-08-05T16:01:52.289Z,55.20
2022-08-05T16:04:25.371Z,54.90
2022-08-05T16:06:56.473Z,56.20
2022-08-05T16:09:24.924Z,59.30
2022-08-05T16:11:54.059Z,58.10
2022-08-05T16:14:21.814Z,57.30
2022-08-05T16:16:50.230Z,57.20
2022-08-05T16:19:18.780Z,57.40
2022-08-05T16:21:59.409Z,57.20
2022-08-05T16:24:40.407Z,56.40
2022-08-05T16:27:09.537Z,57.10
2022-08-05T16:29:37.392Z,57.50
2022-08-05T16:32:09.954Z,57.50
2022-08-05T16:34:42.460Z,56.80
2022-08-05T16:38:02.929Z,57.40
2022-08-05T16:40:07.104Z,58.00
2022-08-05T16:42:40.357Z,57.70
2022-08-05T16:46:03.643Z,58.60
2022-08-05T16:47:58.499Z,58.50
2022-08-05T16:50:29.578Z,58.20
2022-08-05T16:52:58.696Z,57.70
2022-08-05T16:55:46.547Z,58.70
2022-08-05T16:58:19.660Z,59.50
2022-08-05T17:00:49.479Z,60.40
2022-08-05T17:03:20.294Z,58.80
2022-08-05T17:05:53.641Z,60.50
2022-08-05T17:08:36.333Z,60.20
2022-08-05T17:11:12.591Z,59.90
2022-08-05T17:13:45.084Z,60.30
2022-08-05T17:16:29.869Z,60.80
2022-08-05T17:18:59.677Z,61.30
2022-08-05T17:21:36.251Z,60.70
2022-08-05T17:24:30.263Z,60.20
2022-08-05T17:26:57.687Z,60.70
2022-08-05T17:29:33.288Z,61.40
2022-08-05T17:32:08.442Z,60.90
2022-08-05T17:34:38.873Z,62.50
2022-08-05T17:37:29.476Z,65.90
2022-08-05T17:39:56.279Z,66.60
2022-08-05T17:42:31.880Z,65.60
2022-08-05T17:45:00.087Z,66.20
2022-08-05T17:47:36.970Z,66.80
2022-08-05T17:50:10.721Z,67.50
2022-08-05T17:52:52.963Z,67.60
2022-08-05T17:55:27.240Z,67.10
2022-08-05T17:58:02.019Z,68.80
2022-08-05T18:00:29.682Z,68.10
2022-08-05T18:02:57.226Z,68.60
2022-08-05T18:05:27.892Z,68.10
2022-08-05T18:07:56.864Z,70.90
2022-08-05T18:10:24.236Z,71.90
2022-08-05T18:12:51.407Z,70.50
2022-08-05T18:15:18.602Z,69.40
2022-08-05T18:17:59.068Z,69.50
2022-08-05T18:20:31.999Z,73.60
2022-08-05T18:23:11.432Z,73.30
2022-08-05T18:25:44.994Z,73.90
2022-08-05T18:28:12.875Z,71.90
2022-08-05T18:30:51.165Z,72.80
2022-08-05T18:33:23.094Z,70.60
2022-08-05T18:36:03.394Z,70.50
2022-08-05T18:38:35.806Z,70.50
2022-08-05T18:41:57.468Z,73.50
2022-08-05T18:43:50.643Z,74.50
2022-08-05T18:46:20.111Z,72.80
2022-08-05T18:48:52.065Z,71.60
2022-08-05T18:52:04.715Z,72.10
2022-08-05T18:54:31.416Z,72.00
2022-08-05T18:57:01.334Z,70.90
2022-08-05T18:59:42.667Z,71.80
2022-08-05T19:02:26.706Z,71.70
2022-08-05T19:05:01.227Z,72.20
2022-08-05T19:07:45.246Z,72.70
2022-08-05T19:10:12.839Z,72.50
2022-08-05T19:12:40.426Z,72.90
2022-08-05T19:15:16.378Z,73.50
2022-08-05T19:17:59.321Z,72.70
2022-08-05T19:20:41.578Z,73.00
2022-08-05T19:24:03.825Z,73.30
2022-08-05T19:26:04.540Z,73.00
2022-08-05T19:28:35.341Z,73.50
2022-08-05T19:31:05.980Z,73.50
2022-08-05T19:33:36.362Z,74.00
2022-08-05T19:36:09.086Z,74.80
2022-08-05T19:38:36.614Z,74.90
2022-08-05T19:41:06.999Z,74.60
2022-08-05T19:44:05.506Z,75.20
2022-08-05T19:46:30.305Z,75.20
2022-08-05T19:49:03.548Z,75.40
2022-08-05T19:52:05.463Z,75.40
2022-08-05T19:54:31.073Z,76.10
2022-08-05T19:56:59.974Z,76.20
2022-08-05T20:00:00.547Z,76.70
2022-08-05T20:02:17.694Z,76.70
2022-08-05T20:04:46.032Z,76.80
2022-08-05T20:07:14.233Z,77.10
2022-08-05T20:09:53.865Z,77.20
2022-08-05T20:12:21.424Z,78.20
2022-08-05T20:14:50.053Z,77.50
2022-08-05T20:17:19.856Z,78.10
2022-08-05T20:19:56.801Z,78.40
2022-08-05T20:22:26.757Z,78.80
2022-08-05T20:24:55.791Z,78.90
2022-08-05T20:27:26.701Z,78.70
2022-08-05T20:29:57.589Z,79.30
2022-08-05T20:32:26.475Z,78.60
2022-08-05T20:34:53.841Z,79.20
2022-08-05T20:38:07.577Z,79.70
2022-08-05T20:40:09.211Z,79.30
2022-08-05T20:42:36.032Z,79.30
2022-08-05T20:45:04.390Z,79.20
2022-08-05T20:47:32.754Z,79.20
2022-08-05T20:50:02.045Z,79.70
2022-08-05T20:52:29.574Z,80.30
2022-08-05T20:55:16.092Z,80.30
2022-08-05T20:57:45.138Z,80.80
2022-08-05T21:00:40.262Z,81.20
2022-08-05T21:03:06.294Z,82.90
2022-08-05T21:05:47.883Z,84.60
2022-08-05T21:08:21.122Z,88.10
2022-08-05T21:10:55.478Z,93.00
2022-08-05T21:13:48.119Z,94.00
2022-08-05T21:16:13.412Z,99.90
2022-08-05T21:18:43.002Z,99.90
2022-08-05T21:21:12.595Z,99.40
2022-08-05T21:23:39.314Z,99.90
2022-08-05T21:26:12.290Z,99.90
2022-08-05T21:28:41.137Z,99.90
2022-08-05T21:31:18.302Z,99.90
2022-08-05T21:33:47.863Z,99.90
2022-08-05T21:36:27.784Z,99.90
2022-08-05T21:38:57.002Z,99.90
2022-08-05T21:41:33.107Z,99.90
2022-08-05T21:44:04.451Z,99.90
2022-08-05T21:46:34.232Z,99.90
2022-08-05T21:49:02.382Z,99.90
2022-08-05T21:52:15.821Z,99.90
2022-08-05T21:54:27.944Z,99.90
2022-08-05T21:57:29.285Z,99.90
2022-08-05T22:00:03.059Z,99.90
2022-08-05T22:02:32.059Z,99.90
2022-08-05T22:04:58.854Z,99.90
2022-08-05T22:07:54.584Z,99.90
2022-08-05T22:10:14.546Z,99.90
2022-08-05T22:12:44.758Z,99.90
2022-08-05T22:16:01.813Z,99.90
2022-08-05T22:18:05.996Z,99.90
2022-08-05T22:20:35.633Z,99.90
2022-08-05T22:23:24.504Z,99.90
2022-08-05T22:26:11.862Z,99.90
2022-08-05T22:28:42.103Z,99.90
2022-08-05T22:31:08.855Z,99.90
2022-08-05T22:33:57.849Z,99.90
2022-08-05T22:36:25.954Z,99.90
2022-08-05T22:38:53.707Z,99.90
2022-08-05T22:42:05.711Z,99.90
2022-08-05T22:44:08.808Z,99.90
2022-08-05T22:46:40.073Z,99.90
2022-08-05T22:49:23.123Z,99.90
2022-08-05T22:52:05.693Z,99.90
2022-08-05T22:54:35.225Z,99.90
2022-08-05T22:57:02.883Z,99.90
2022-08-05T22:59:48.484Z,99.90
2022-08-05T23:02:18.859Z,99.90
2022-08-05T23:04:57.147Z,99.90
2022-08-05T23:07:24.168Z,99.90
2022-08-05T23:10:01.382Z,99.90
2022-08-05T23:12:32.382Z,99.90
2022-08-05T23:15:03.426Z,99.90
2022-08-05T23:17:32.749Z,99.90
2022-08-05T23:20:16.500Z,99.90
2022-08-05T23:22:47.828Z,99.90
2022-08-05T23:25:54.847Z,99.90
2022-08-05T23:28:07.203Z,99.90
2022-08-05T23:30:40.614Z,99.90
2022-08-05T23:33:16.289Z,99.90
2022-08-05T23:35:55.134Z,99.90
2022-08-05T23:38:24.194Z,99.90
2022-08-05T23:40:52.625Z,99.90
2022-08-05T23:43:24.921Z,99.90
2022-08-05T23:46:05.323Z,99.90
2022-08-05T23:48:59.894Z,99.90
2022-08-05T23:51:53.496Z,99.90
2022-08-05T23:54:29.909Z,99.90
2022-08-05T23:57:04.225Z,99.90
